createdAt,value
2023-03-19T00:00:27.874Z,3.62
2023-03-19T00:02:56.703Z,3.57
2023-03-19T00:05:25.360Z,3.47
2023-03-19T00:07:55.234Z,3.38
2023-03-19T00:10:23.520Z,3.33
2023-03-19T00:12:52.394Z,3.29
2023-03-19T00:15:20.990Z,3.27
2023-03-19T00:17:52.507Z,3.26
2023-03-19T00:20:22.463Z,3.27
2023-03-19T00:22:51.393Z,3.28
2023-03-19T00:25:21.630Z,3.30
2023-03-19T00:27:50.609Z,3.33
2023-03-19T00:30:19.235Z,3.33
2023-03-19T00:32:48.329Z,3.31
2023-03-19T00:35:16.912Z,3.31
2023-03-19T00:37:45.547Z,3.30
2023-03-19T00:40:14.759Z,3.31
2023-03-19T00:42:45.153Z,3.28
2023-03-19T00:45:14.386Z,3.27
2023-03-19T00:47:44.112Z,3.25
2023-03-19T00:50:13.284Z,3.24
2023-03-19T00:52:41.802Z,3.23
2023-03-19T00:55:12.218Z,3.21
2023-03-19T00:57:40.841Z,3.18
2023-03-19T01:00:12.438Z,3.15
2023-03-19T01:02:42.930Z,3.12
2023-03-19T01:05:11.781Z,3.07
2023-03-19T01:07:40.617Z,3.08
2023-03-19T01:10:12.846Z,3.06
2023-03-19T01:12:41.772Z,3.10
2023-03-19T01:15:12.735Z,3.11
2023-03-19T01:17:42.568Z,3.12
2023-03-19T01:20:15.572Z,3.12
2023-03-19T01:22:44.260Z,3.11
2023-03-19T01:25:14.365Z,3.09
2023-03-19T01:27:42.941Z,3.05
2023-03-19T01:30:13.924Z,3.00
2023-03-19T01:32:43.150Z,2.93
2023-03-19T01:35:14.294Z,2.91
2023-03-19T01:37:43.192Z,2.89
2023-03-19T01:40:14.789Z,2.92
2023-03-19T01:42:54.072Z,2.93
2023-03-19T01:45:34.388Z,2.93
2023-03-19T01:48:03.744Z,2.94
2023-03-19T01:50:38.191Z,2.89
2023-03-19T01:53:06.946Z,2.76
2023-03-19T01:55:36.053Z,2.67
2023-03-19T01:58:05.170Z,2.63
2023-03-19T02:00:37.030Z,2.54
2023-03-19T02:03:06.529Z,2.41
2023-03-19T02:05:36.191Z,2.34
2023-03-19T02:08:07.877Z,2.29
2023-03-19T02:10:36.445Z,2.29
2023-03-19T02:13:05.294Z,2.30
2023-03-19T02:15:36.816Z,2.33
2023-03-19T02:18:05.804Z,2.36
2023-03-19T02:20:37.334Z,2.42
2023-03-19T02:23:13.266Z,2.48
2023-03-19T02:25:48.756Z,2.55
2023-03-19T02:28:21.270Z,2.62
2023-03-19T02:30:50.611Z,2.66
2023-03-19T02:33:20.439Z,2.69
2023-03-19T02:35:50.813Z,2.76
2023-03-19T02:38:22.580Z,2.80
2023-03-19T02:40:53.758Z,2.76
2023-03-19T02:43:24.247Z,2.76
2023-03-19T02:45:53.831Z,2.73
2023-03-19T02:48:22.633Z,2.71
2023-03-19T02:50:51.849Z,2.74
2023-03-19T02:53:20.684Z,2.76
2023-03-19T02:55:49.180Z,2.75
2023-03-19T02:58:17.605Z,2.65
2023-03-19T03:00:47.956Z,2.53
2023-03-19T03:03:16.610Z,2.43
2023-03-19T03:05:45.374Z,2.38
2023-03-19T03:08:13.863Z,2.34
2023-03-19T03:10:42.524Z,2.31
2023-03-19T03:13:11.415Z,2.29
2023-03-19T03:15:41.264Z,2.28
2023-03-19T03:18:11.404Z,2.31
2023-03-19T03:20:47.592Z,2.33
2023-03-19T03:23:24.247Z,2.31
2023-03-19T03:26:06.989Z,2.24
2023-03-19T03:28:35.366Z,2.19
2023-03-19T03:31:04.308Z,2.19
2023-03-19T03:33:34.399Z,2.16
2023-03-19T03:36:03.049Z,2.18
2023-03-19T03:38:32.877Z,2.19
2023-03-19T03:41:01.610Z,2.12
2023-03-19T03:43:30.377Z,2.12
2023-03-19T03:45:59.008Z,2.14
2023-03-19T03:48:27.655Z,2.13
2023-03-19T03:51:04.603Z,2.16
2023-03-19T03:53:33.891Z,2.20
2023-03-19T03:56:02.630Z,2.19
2023-03-19T03:58:32.013Z,2.19
2023-03-19T04:01:00.228Z,2.16
2023-03-19T04:03:28.861Z,2.19
2023-03-19T04:05:57.482Z,2.18
2023-03-19T04:08:27.486Z,2.20
2023-03-19T04:10:56.414Z,2.19
2023-03-19T04:13:25.575Z,2.23
2023-03-19T04:15:54.811Z,2.26
2023-03-19T04:18:23.719Z,2.28
2023-03-19T04:20:54.440Z,2.30
2023-03-19T04:23:23.096Z,2.32
2023-03-19T04:25:53.257Z,2.34
2023-03-19T04:28:21.941Z,2.33
2023-03-19T04:30:50.248Z,2.34
2023-03-19T04:33:18.798Z,2.36
2023-03-19T04:35:47.127Z,2.33
2023-03-19T04:38:15.520Z,2.24
2023-03-19T04:40:44.032Z,2.10
2023-03-19T04:43:14.373Z,2.02
2023-03-19T04:45:43.047Z,1.92
2023-03-19T04:48:14.260Z,1.85
2023-03-19T04:50:43.212Z,1.83
2023-03-19T04:53:11.631Z,1.82
2023-03-19T04:55:42.684Z,1.83
2023-03-19T04:58:11.491Z,1.83
2023-03-19T05:00:44.942Z,1.85
2023-03-19T05:03:16.133Z,1.83
2023-03-19T05:05:44.962Z,1.84
2023-03-19T05:08:13.846Z,1.87
2023-03-19T05:10:42.554Z,1.90
2023-03-19T05:13:11.294Z,1.92
2023-03-19T05:15:45.159Z,1.92
2023-03-19T05:18:15.208Z,1.93
2023-03-19T05:20:44.662Z,1.96
2023-03-19T05:23:15.986Z,1.93
2023-03-19T05:25:50.034Z,1.96
2023-03-19T05:28:19.141Z,2.01
2023-03-19T05:30:49.120Z,2.04
2023-03-19T05:33:17.976Z,2.03
2023-03-19T05:35:47.293Z,2.06
2023-03-19T05:38:16.353Z,2.09
2023-03-19T05:40:45.217Z,2.14
2023-03-19T05:43:14.380Z,2.13
2023-03-19T05:45:43.865Z,2.18
2023-03-19T05:48:14.837Z,2.23
2023-03-19T05:50:43.737Z,2.28
2023-03-19T05:53:12.578Z,2.31
2023-03-19T05:55:41.289Z,2.37
2023-03-19T05:58:09.845Z,2.48
2023-03-19T06:00:38.894Z,2.60
2023-03-19T06:03:07.590Z,2.72
2023-03-19T06:06:02.794Z,2.86
2023-03-19T06:08:31.437Z,2.98
2023-03-19T06:11:00.248Z,3.12
2023-03-19T06:13:29.201Z,3.28
2023-03-19T06:15:57.808Z,3.46
2023-03-19T06:18:26.598Z,3.58
2023-03-19T06:20:55.283Z,3.61
2023-03-19T06:23:51.392Z,3.77
2023-03-19T06:26:19.978Z,3.91
2023-03-19T06:28:48.814Z,3.93
2023-03-19T06:31:17.761Z,4.05
2023-03-19T06:33:46.136Z,4.18
2023-03-19T06:36:14.690Z,4.29
2023-03-19T06:38:43.130Z,4.42
2023-03-19T06:41:13.429Z,4.50
2023-03-19T06:43:42.339Z,4.49
2023-03-19T06:46:11.866Z,4.53
2023-03-19T06:48:40.741Z,4.55
2023-03-19T06:51:09.398Z,4.43
2023-03-19T06:53:40.502Z,4.44
2023-03-19T06:56:09.501Z,4.54
2023-03-19T06:58:39.324Z,4.59
2023-03-19T07:01:08.078Z,4.77
2023-03-19T07:03:36.482Z,4.75
2023-03-19T07:06:05.320Z,4.83
2023-03-19T07:08:33.986Z,4.99
2023-03-19T07:11:17.598Z,5.22
2023-03-19T07:13:50.322Z,5.38
2023-03-19T07:16:19.320Z,5.50
2023-03-19T07:18:47.895Z,5.66
2023-03-19T07:21:17.085Z,5.70
2023-03-19T07:23:49.427Z,5.74
2023-03-19T07:26:18.106Z,5.88
2023-03-19T07:28:46.929Z,6.05
2023-03-19T07:31:17.129Z,6.13
2023-03-19T07:33:45.922Z,6.30
2023-03-19T07:36:14.661Z,6.55
2023-03-19T07:38:43.686Z,6.72
2023-03-19T07:41:12.488Z,6.82
2023-03-19T07:43:41.034Z,6.98
2023-03-19T07:46:09.848Z,6.88
2023-03-19T07:48:40.346Z,6.92
2023-03-19T07:51:08.955Z,7.11
2023-03-19T07:53:37.653Z,7.15
2023-03-19T07:56:07.163Z,7.36
2023-03-19T07:58:36.165Z,7.50
2023-03-19T08:01:14.625Z,7.64
2023-03-19T08:03:44.590Z,7.82
2023-03-19T08:06:13.401Z,8.05
2023-03-19T08:08:41.916Z,8.18
2023-03-19T08:11:10.313Z,8.44
2023-03-19T08:13:39.022Z,8.68
2023-03-19T08:16:08.787Z,8.89
2023-03-19T08:18:37.405Z,9.13
2023-03-19T08:21:07.865Z,9.43
2023-03-19T08:23:36.744Z,9.51
2023-03-19T08:26:05.474Z,9.68
2023-03-19T08:28:34.089Z,9.88
2023-03-19T08:31:10.992Z,9.91
2023-03-19T08:33:42.424Z,10.17
2023-03-19T08:36:14.252Z,10.46
2023-03-19T08:38:42.961Z,10.60
2023-03-19T08:41:12.926Z,10.60
2023-03-19T08:43:41.486Z,10.63
2023-03-19T08:46:10.090Z,10.73
2023-03-19T08:48:41.390Z,11.09
2023-03-19T08:51:11.780Z,11.26
2023-03-19T08:53:40.636Z,11.38
2023-03-19T08:56:09.641Z,11.70
2023-03-19T08:58:38.765Z,11.89
2023-03-19T09:01:11.008Z,12.08
2023-03-19T09:03:40.470Z,12.07
2023-03-19T09:06:11.956Z,12.30
2023-03-19T09:08:40.659Z,12.55
2023-03-19T09:11:10.555Z,12.94
2023-03-19T09:13:39.833Z,12.83
2023-03-19T09:16:08.832Z,12.76
2023-03-19T09:18:37.656Z,13.00
2023-03-19T09:21:07.005Z,13.24
2023-03-19T09:23:36.946Z,13.44
2023-03-19T09:26:05.470Z,13.72
2023-03-19T09:28:34.017Z,14.91
2023-03-19T09:31:16.656Z,15.51
2023-03-19T09:33:45.738Z,16.38
2023-03-19T09:36:14.745Z,16.92
2023-03-19T09:38:44.886Z,17.31
2023-03-19T09:41:18.254Z,16.61
2023-03-19T09:44:00.488Z,16.39
2023-03-19T09:46:34.420Z,16.00
2023-03-19T09:49:07.408Z,16.33
2023-03-19T09:51:45.671Z,17.05
2023-03-19T09:54:46.543Z,17.81
2023-03-19T09:57:15.809Z,17.45
2023-03-19T09:59:44.323Z,16.89
2023-03-19T10:02:33.176Z,17.22
2023-03-19T10:05:12.826Z,17.17
2023-03-19T10:07:50.873Z,17.63
2023-03-19T10:10:28.489Z,18.63
2023-03-19T10:13:02.805Z,19.47
2023-03-19T10:15:32.391Z,19.88
2023-03-19T10:18:04.520Z,20.53
2023-03-19T10:20:49.775Z,20.21
2023-03-19T10:23:28.826Z,19.90
2023-03-19T10:26:00.980Z,19.83
2023-03-19T10:28:30.585Z,19.98
2023-03-19T10:31:15.355Z,21.23
2023-03-19T10:33:46.942Z,20.49
2023-03-19T10:36:16.458Z,19.65
2023-03-19T10:38:50.041Z,19.69
2023-03-19T10:41:28.209Z,20.06
2023-03-19T10:44:00.650Z,20.45
2023-03-19T10:46:33.337Z,20.50
2023-03-19T10:49:02.096Z,21.27
2023-03-19T10:51:30.688Z,22.16
2023-03-19T10:54:02.351Z,22.30
2023-03-19T10:56:36.274Z,22.01
2023-03-19T10:59:07.017Z,21.72
2023-03-19T11:01:37.536Z,22.07
2023-03-19T11:04:14.410Z,22.65
2023-03-19T11:06:43.042Z,22.41
2023-03-19T11:09:21.434Z,21.89
2023-03-19T11:11:53.873Z,21.32
2023-03-19T11:14:25.914Z,20.31
2023-03-19T11:16:58.646Z,19.78
2023-03-19T11:19:28.552Z,19.55
2023-03-19T11:22:17.616Z,19.15
2023-03-19T11:24:52.814Z,19.13
2023-03-19T11:27:30.061Z,18.84
2023-03-19T11:29:59.184Z,18.55
2023-03-19T11:32:40.578Z,18.00
2023-03-19T11:35:12.099Z,18.03
2023-03-19T11:37:54.592Z,18.35
2023-03-19T11:40:31.749Z,18.06
2023-03-19T11:43:23.400Z,18.33
2023-03-19T11:46:00.982Z,18.55
2023-03-19T11:48:39.895Z,18.52
2023-03-19T11:51:12.620Z,18.61
2023-03-19T11:53:52.353Z,18.54
2023-03-19T11:56:26.132Z,18.50
2023-03-19T11:59:19.618Z,17.92
2023-03-19T12:02:20.964Z,17.81
2023-03-19T12:05:05.232Z,17.93
2023-03-19T12:07:40.676Z,18.12
2023-03-19T12:10:30.957Z,18.32
2023-03-19T12:13:08.632Z,18.31
2023-03-19T12:15:43.263Z,18.11
2023-03-19T12:18:20.197Z,18.21
2023-03-19T12:20:56.870Z,18.17
2023-03-19T12:23:38.229Z,18.27
2023-03-19T12:26:09.329Z,18.34
2023-03-19T12:29:02.430Z,18.57
2023-03-19T12:31:50.717Z,18.43
2023-03-19T12:34:30.176Z,18.07
2023-03-19T12:37:09.412Z,18.13
2023-03-19T12:39:41.755Z,18.36
2023-03-19T12:42:18.164Z,18.50
2023-03-19T12:44:49.770Z,18.57
2023-03-19T12:47:22.745Z,18.50
2023-03-19T12:49:53.541Z,18.34
2023-03-19T12:52:36.216Z,18.14
2023-03-19T12:55:10.596Z,18.31
2023-03-19T12:57:48.222Z,18.37
2023-03-19T13:00:37.973Z,18.17
2023-03-19T13:03:11.975Z,18.04
2023-03-19T13:05:43.650Z,18.31
2023-03-19T13:08:17.219Z,18.29
2023-03-19T13:10:46.336Z,18.45
2023-03-19T13:13:36.736Z,18.76
2023-03-19T13:16:10.880Z,18.60
2023-03-19T13:18:46.450Z,18.50
2023-03-19T13:21:23.248Z,18.49
2023-03-19T13:24:03.015Z,18.79
2023-03-19T13:26:32.910Z,18.95
2023-03-19T13:29:03.524Z,19.26
2023-03-19T13:31:41.970Z,19.26
2023-03-19T13:34:21.773Z,19.26
2023-03-19T13:36:55.654Z,18.85
2023-03-19T13:39:28.548Z,18.43
2023-03-19T13:42:11.685Z,18.36
2023-03-19T13:44:45.800Z,18.43
2023-03-19T13:47:43.720Z,18.35
2023-03-19T13:50:34.354Z,18.23
2023-03-19T13:53:35.484Z,18.19
2023-03-19T13:56:12.804Z,18.13
2023-03-19T13:58:56.746Z,18.17
2023-03-19T14:01:44.913Z,18.01
2023-03-19T14:04:20.926Z,18.12
2023-03-19T14:06:52.958Z,18.52
2023-03-19T14:09:45.736Z,18.77
2023-03-19T14:12:24.447Z,18.64
2023-03-19T14:14:57.966Z,18.47
2023-03-19T14:17:28.373Z,18.35
2023-03-19T14:19:59.286Z,18.18
2023-03-19T14:22:36.853Z,17.90
2023-03-19T14:25:17.158Z,17.84
2023-03-19T14:27:49.249Z,17.88
2023-03-19T14:30:26.405Z,18.00
2023-03-19T14:32:57.701Z,17.97
2023-03-19T14:35:27.502Z,17.79
2023-03-19T14:37:59.157Z,17.88
2023-03-19T14:40:34.031Z,17.86
2023-03-19T14:43:06.724Z,17.64
2023-03-19T14:45:51.304Z,17.32
2023-03-19T14:48:36.702Z,17.22
2023-03-19T14:51:17.873Z,17.20
2023-03-19T14:53:50.267Z,17.08
2023-03-19T14:56:22.334Z,17.04
2023-03-19T14:58:54.251Z,16.92
2023-03-19T15:01:25.053Z,16.80
2023-03-19T15:03:56.857Z,16.66
2023-03-19T15:06:26.342Z,16.47
2023-03-19T15:09:01.175Z,16.49
2023-03-19T15:11:50.643Z,16.41
2023-03-19T15:14:39.479Z,16.16
2023-03-19T15:17:11.750Z,16.29
2023-03-19T15:19:40.755Z,16.32
2023-03-19T15:22:15.127Z,16.28
2023-03-19T15:24:48.806Z,16.17
2023-03-19T15:27:21.734Z,16.06
2023-03-19T15:29:51.678Z,15.91
2023-03-19T15:32:52.190Z,15.77
2023-03-19T15:35:26.293Z,15.57
2023-03-19T15:37:57.384Z,15.50
2023-03-19T15:40:31.022Z,15.47
2023-03-19T15:43:02.628Z,15.38
2023-03-19T15:45:34.042Z,15.25
2023-03-19T15:48:07.619Z,15.13
2023-03-19T15:50:37.841Z,14.99
2023-03-19T15:53:09.841Z,14.87
2023-03-19T15:55:40.321Z,14.79
2023-03-19T15:58:11.081Z,14.80
2023-03-19T16:00:44.899Z,14.78
2023-03-19T16:03:18.960Z,14.69
2023-03-19T16:05:53.329Z,14.64
2023-03-19T16:08:25.627Z,14.54
2023-03-19T16:10:56.152Z,14.42
2023-03-19T16:13:30.908Z,14.33
2023-03-19T16:16:04.865Z,14.21
2023-03-19T16:18:43.809Z,14.06
2023-03-19T16:21:16.911Z,13.96
2023-03-19T16:23:47.223Z,13.90
2023-03-19T16:26:21.908Z,13.78
2023-03-19T16:28:58.109Z,13.64
2023-03-19T16:31:30.984Z,13.56
2023-03-19T16:34:00.096Z,13.36
2023-03-19T16:36:33.478Z,13.19
2023-03-19T16:39:22.086Z,12.95
2023-03-19T16:42:19.635Z,12.85
2023-03-19T16:44:49.102Z,12.86
2023-03-19T16:47:18.085Z,12.90
2023-03-19T16:49:48.132Z,12.82
2023-03-19T16:52:21.663Z,12.75
2023-03-19T16:54:54.117Z,12.67
2023-03-19T16:57:24.256Z,12.57
2023-03-19T16:59:52.913Z,12.48
2023-03-19T17:02:21.514Z,12.36
2023-03-19T17:04:50.180Z,12.24
2023-03-19T17:07:44.700Z,12.01
2023-03-19T17:10:15.114Z,11.87
2023-03-19T17:12:48.001Z,11.78
2023-03-19T17:15:21.864Z,11.74
2023-03-19T17:17:51.176Z,11.67
2023-03-19T17:20:21.052Z,11.51
2023-03-19T17:22:50.044Z,11.43
2023-03-19T17:25:19.729Z,11.39
2023-03-19T17:27:51.664Z,11.33
2023-03-19T17:30:21.227Z,11.25
2023-03-19T17:32:55.503Z,11.20
2023-03-19T17:35:24.396Z,11.13
2023-03-19T17:37:52.903Z,11.03
2023-03-19T17:40:23.382Z,10.91
2023-03-19T17:42:56.419Z,10.80
2023-03-19T17:45:30.010Z,10.73
2023-03-19T17:47:59.924Z,10.67
2023-03-19T17:50:31.575Z,10.51
2023-03-19T17:53:00.623Z,10.34
2023-03-19T17:55:31.232Z,10.19
2023-03-19T17:58:01.737Z,10.06
2023-03-19T18:00:30.554Z,10.09
2023-03-19T18:02:59.155Z,10.14
2023-03-19T18:05:28.089Z,10.15
2023-03-19T18:07:58.274Z,10.19
2023-03-19T18:10:30.537Z,10.16
2023-03-19T18:13:02.042Z,10.07
2023-03-19T18:15:31.986Z,10.04
2023-03-19T18:18:02.590Z,10.01
2023-03-19T18:20:35.829Z,9.97
2023-03-19T18:23:08.140Z,9.95
2023-03-19T18:25:37.228Z,9.93
2023-03-19T18:28:08.700Z,9.90
2023-03-19T18:30:40.942Z,9.80
2023-03-19T18:33:15.949Z,9.73
2023-03-19T18:35:46.292Z,9.71
2023-03-19T18:38:17.432Z,9.67
2023-03-19T18:40:49.185Z,9.67
2023-03-19T18:43:19.303Z,9.62
2023-03-19T18:45:50.707Z,9.57
2023-03-19T18:48:23.326Z,9.55
2023-03-19T18:50:52.508Z,9.50
2023-03-19T18:53:21.051Z,9.48
2023-03-19T18:55:50.004Z,9.44
2023-03-19T18:58:22.079Z,9.38
2023-03-19T19:00:54.743Z,9.30
2023-03-19T19:03:29.636Z,9.25
2023-03-19T19:05:58.445Z,9.16
2023-03-19T19:08:29.761Z,9.08
2023-03-19T19:11:03.675Z,8.96
2023-03-19T19:13:46.329Z,8.92
2023-03-19T19:16:25.260Z,8.86
2023-03-19T19:19:03.288Z,8.83
2023-03-19T19:21:32.133Z,8.88
2023-03-19T19:24:01.240Z,8.89
2023-03-19T19:26:31.609Z,8.91
2023-03-19T19:29:03.895Z,8.87
2023-03-19T19:31:37.474Z,8.84
2023-03-19T19:34:06.756Z,8.80
2023-03-19T19:36:35.348Z,8.75
2023-03-19T19:39:06.344Z,8.66
2023-03-19T19:41:35.444Z,8.54
2023-03-19T19:44:07.994Z,8.47
2023-03-19T19:46:36.918Z,8.37
2023-03-19T19:49:06.548Z,8.27
2023-03-19T19:51:35.526Z,8.25
2023-03-19T19:54:04.380Z,8.28
2023-03-19T19:56:33.085Z,8.28
2023-03-19T19:59:06.694Z,8.26
2023-03-19T20:01:36.940Z,8.22
2023-03-19T20:04:06.406Z,8.16
2023-03-19T20:06:36.323Z,8.13
2023-03-19T20:09:15.317Z,8.10
2023-03-19T20:11:44.003Z,8.07
2023-03-19T20:14:14.180Z,8.05
2023-03-19T20:16:44.387Z,8.05
2023-03-19T20:19:19.034Z,8.03
2023-03-19T20:21:47.675Z,8.04
2023-03-19T20:24:17.055Z,8.04
2023-03-19T20:26:46.074Z,8.04
2023-03-19T20:29:16.164Z,7.98
2023-03-19T20:31:46.868Z,7.99
2023-03-19T20:34:39.683Z,7.98
2023-03-19T20:37:11.696Z,7.95
2023-03-19T20:39:40.285Z,7.90
2023-03-19T20:42:14.806Z,7.84
2023-03-19T20:44:43.706Z,7.79
2023-03-19T20:47:20.831Z,7.80
2023-03-19T20:49:49.565Z,7.79
2023-03-19T20:52:18.713Z,7.76
2023-03-19T20:54:48.526Z,7.77
2023-03-19T20:57:18.832Z,7.73
2023-03-19T20:59:48.602Z,7.69
2023-03-19T21:02:20.192Z,7.71
2023-03-19T21:04:49.441Z,7.74
2023-03-19T21:07:27.897Z,7.77
2023-03-19T21:09:57.280Z,7.79
2023-03-19T21:12:29.605Z,7.69
2023-03-19T21:14:58.922Z,7.42
2023-03-19T21:17:29.864Z,7.40
2023-03-19T21:19:58.730Z,7.41
2023-03-19T21:22:31.132Z,7.55
2023-03-19T21:25:04.609Z,7.58
2023-03-19T21:27:33.852Z,7.62
2023-03-19T21:30:02.873Z,7.66
2023-03-19T21:32:33.235Z,7.71
2023-03-19T21:35:02.809Z,7.76
2023-03-19T21:37:33.748Z,7.77
2023-03-19T21:40:02.671Z,7.73
2023-03-19T21:42:32.061Z,7.64
2023-03-19T21:45:01.294Z,7.55
2023-03-19T21:47:32.650Z,7.54
2023-03-19T21:50:02.649Z,7.54
2023-03-19T21:52:35.730Z,7.50
2023-03-19T21:55:10.854Z,7.43
2023-03-19T21:57:39.488Z,7.51
2023-03-19T22:00:13.502Z,7.47
2023-03-19T22:02:44.730Z,7.46
2023-03-19T22:05:18.308Z,7.43
2023-03-19T22:08:02.011Z,7.43
2023-03-19T22:10:31.318Z,7.43
2023-03-19T22:13:00.308Z,7.44
2023-03-19T22:15:35.185Z,7.38
2023-03-19T22:18:07.048Z,7.30
2023-03-19T22:20:35.618Z,7.27
2023-03-19T22:23:04.233Z,7.26
2023-03-19T22:25:35.644Z,7.28
2023-03-19T22:28:06.417Z,7.29
2023-03-19T22:30:38.307Z,7.30
2023-03-19T22:33:15.089Z,7.30
2023-03-19T22:35:44.502Z,7.24
2023-03-19T22:38:13.955Z,7.16
2023-03-19T22:40:45.483Z,7.12
2023-03-19T22:43:20.168Z,7.11
2023-03-19T22:45:55.527Z,7.11
2023-03-19T22:48:26.534Z,7.07
2023-03-19T22:50:55.203Z,7.06
2023-03-19T22:53:26.309Z,7.05
2023-03-19T22:55:55.758Z,6.97
2023-03-19T22:58:24.541Z,6.92
2023-03-19T23:00:53.965Z,6.93
2023-03-19T23:03:27.507Z,6.98
2023-03-19T23:05:58.546Z,6.95
2023-03-19T23:08:27.059Z,6.94
2023-03-19T23:10:55.884Z,7.01
2023-03-19T23:13:24.811Z,7.05
2023-03-19T23:15:57.514Z,7.09
2023-03-19T23:18:31.039Z,7.11
2023-03-19T23:23:43.652Z,7.11
2023-03-19T23:26:25.706Z,7.10
2023-03-19T23:28:54.858Z,7.05
2023-03-19T23:31:23.506Z,7.06
2023-03-19T23:33:53.786Z,7.04
2023-03-19T23:36:22.402Z,7.00
2023-03-19T23:38:51.842Z,7.02
2023-03-19T23:41:24.076Z,7.01
2023-03-19T23:43:53.175Z,7.10
2023-03-19T23:46:23.294Z,7.09
2023-03-19T23:48:53.470Z,7.05
2023-03-19T23:51:22.102Z,7.09
2023-03-19T23:53:51.558Z,7.12
2023-03-19T23:56:22.663Z,7.17
2023-03-19T23:58:52.833Z,7.18
